createdAt,value
2018-03-20T00:01:26.450Z,4.97
2018-03-20T00:03:56.809Z,4.40
2018-03-20T00:06:27.759Z,4.10
2018-03-20T00:08:58.334Z,4.20
2018-03-20T00:11:29.402Z,3.70
2018-03-20T00:14:01.004Z,4.30
2018-03-20T00:16:31.414Z,4.30
2018-03-20T00:19:02.286Z,4.70
2018-03-20T00:21:33.736Z,4.43
2018-03-20T00:24:04.639Z,3.70
2018-03-20T00:26:35.390Z,4.43
2018-03-20T00:29:06.134Z,4.33
2018-03-20T00:31:36.758Z,3.90
2018-03-20T00:34:08.147Z,4.30
2018-03-20T00:36:39.767Z,3.83
2018-03-20T00:39:10.433Z,4.07
2018-03-20T00:41:41.347Z,3.73
2018-03-20T00:44:11.791Z,4.03
2018-03-20T00:46:42.448Z,4.00
2018-03-20T00:49:13.838Z,3.80
2018-03-20T00:51:44.107Z,4.23
2018-03-20T00:54:14.833Z,3.93
2018-03-20T00:56:45.795Z,3.90
2018-03-20T00:59:17.116Z,4.53
2018-03-20T01:01:47.978Z,3.33
2018-03-20T01:04:18.348Z,4.17
2018-03-20T01:06:49.053Z,4.03
2018-03-20T01:09:20.046Z,3.37
2018-03-20T01:11:50.523Z,3.57
2018-03-20T01:14:20.870Z,3.57
2018-03-20T01:16:51.573Z,3.70
2018-03-20T01:19:21.838Z,3.50
2018-03-20T01:21:52.933Z,3.40
2018-03-20T01:24:24.150Z,3.27
2018-03-20T01:26:54.796Z,3.17
2018-03-20T01:29:25.234Z,3.70
2018-03-20T01:31:56.983Z,2.80
2018-03-20T01:34:27.732Z,2.70
2018-03-20T01:36:58.727Z,3.53
2018-03-20T01:39:29.432Z,3.60
2018-03-20T01:41:59.943Z,3.20
2018-03-20T01:44:30.552Z,3.53
2018-03-20T01:47:01.129Z,3.13
2018-03-20T01:49:31.319Z,3.07
2018-03-20T01:52:02.766Z,3.40
2018-03-20T01:54:33.536Z,3.07
2018-03-20T01:57:04.190Z,3.47
2018-03-20T01:59:34.434Z,3.33
2018-03-20T02:02:06.535Z,3.60
2018-03-20T02:04:36.969Z,3.13
2018-03-20T02:07:07.874Z,3.70
2018-03-20T02:09:38.966Z,3.80
2018-03-20T02:12:09.652Z,4.53
2018-03-20T02:14:40.174Z,3.20
2018-03-20T02:17:10.858Z,4.03
2018-03-20T02:19:41.106Z,4.30
2018-03-20T02:22:11.874Z,4.53
2018-03-20T02:24:42.391Z,2.90
2018-03-20T02:27:12.946Z,3.90
2018-03-20T02:29:43.328Z,4.47
2018-03-20T02:32:14.099Z,4.67
2018-03-20T02:34:44.296Z,4.00
2018-03-20T02:37:14.705Z,4.47
2018-03-20T02:39:44.833Z,3.90
2018-03-20T02:42:15.960Z,4.50
2018-03-20T02:44:46.627Z,4.07
2018-03-20T02:47:17.379Z,4.40
2018-03-20T02:49:48.553Z,4.27
2018-03-20T02:52:23.219Z,4.43
2018-03-20T02:54:53.747Z,4.60
2018-03-20T02:57:24.070Z,4.20
2018-03-20T02:59:54.459Z,4.00
2018-03-20T03:02:26.363Z,4.13
2018-03-20T03:04:56.695Z,4.40
2018-03-20T03:07:27.216Z,5.20
2018-03-20T03:09:57.892Z,5.13
2018-03-20T03:12:28.670Z,4.67
2018-03-20T03:14:58.979Z,4.90
2018-03-20T03:17:29.665Z,5.47
2018-03-20T03:20:01.129Z,4.50
2018-03-20T03:22:31.286Z,5.10
2018-03-20T03:25:02.389Z,5.80
2018-03-20T03:27:33.390Z,5.90
2018-03-20T03:30:03.814Z,6.27
2018-03-20T03:32:35.711Z,6.23
2018-03-20T03:35:06.054Z,5.87
2018-03-20T03:37:37.261Z,6.77
2018-03-20T03:40:07.387Z,6.80
2018-03-20T03:42:38.471Z,5.90
2018-03-20T03:45:08.572Z,7.63
2018-03-20T03:47:38.767Z,7.10
2018-03-20T03:50:09.218Z,7.30
2018-03-20T03:52:39.827Z,6.47
2018-03-20T03:55:10.076Z,7.57
2018-03-20T03:57:41.589Z,7.57
2018-03-20T04:00:11.831Z,7.10
2018-03-20T04:02:42.319Z,7.17
2018-03-20T04:05:13.706Z,7.10
2018-03-20T04:07:44.147Z,6.27
2018-03-20T04:10:14.282Z,6.90
2018-03-20T04:12:44.846Z,7.90
2018-03-20T04:15:15.263Z,6.97
2018-03-20T04:17:46.483Z,7.00
2018-03-20T04:20:16.912Z,7.27
2018-03-20T04:22:47.601Z,6.57
2018-03-20T04:25:19.142Z,6.80
2018-03-20T04:27:49.497Z,7.43
2018-03-20T04:30:19.805Z,6.93
2018-03-20T04:32:50.147Z,6.20
2018-03-20T04:35:20.578Z,6.57
2018-03-20T04:37:50.910Z,6.40
2018-03-20T04:40:22.187Z,7.10
2018-03-20T04:42:52.496Z,7.10
2018-03-20T04:45:22.823Z,6.33
2018-03-20T04:47:53.123Z,6.60
2018-03-20T04:50:23.207Z,6.60
2018-03-20T04:52:53.551Z,6.53
2018-03-20T04:55:24.738Z,7.63
2018-03-20T04:57:55.129Z,6.87
2018-03-20T05:00:25.375Z,7.00
2018-03-20T05:02:55.591Z,7.23
2018-03-20T05:05:26.028Z,7.07
2018-03-20T05:07:56.182Z,7.33
2018-03-20T05:10:26.524Z,6.90
2018-03-20T05:12:56.606Z,7.33
2018-03-20T05:15:26.718Z,7.17
2018-03-20T05:17:56.986Z,6.67
2018-03-20T05:20:28.738Z,6.33
2018-03-20T05:23:00.346Z,6.97
2018-03-20T05:25:30.978Z,6.70
2018-03-20T05:28:02.023Z,6.77
2018-03-20T05:30:32.744Z,6.37
2018-03-20T05:33:04.014Z,6.43
2018-03-20T05:35:34.519Z,6.60
2018-03-20T05:38:04.810Z,6.10
2018-03-20T05:40:35.547Z,5.90
2018-03-20T05:43:06.171Z,5.80
2018-03-20T05:45:37.326Z,5.90
2018-03-20T05:48:08.616Z,6.60
2018-03-20T05:50:39.569Z,5.70
2018-03-20T05:53:09.726Z,5.10
2018-03-20T05:55:40.109Z,5.00
2018-03-20T05:58:10.366Z,5.00
2018-03-20T06:00:41.450Z,4.87
2018-03-20T06:03:11.611Z,4.90
2018-03-20T06:05:41.851Z,5.17
2018-03-20T06:08:12.145Z,5.70
2018-03-20T06:10:42.614Z,4.33
2018-03-20T06:13:13.579Z,4.53
2018-03-20T06:15:43.726Z,4.30
2018-03-20T06:18:13.941Z,4.47
2018-03-20T06:20:44.043Z,4.33
2018-03-20T06:23:14.903Z,3.87
2018-03-20T06:25:45.114Z,4.30
2018-03-20T06:28:15.457Z,3.27
2018-03-20T06:30:45.604Z,3.80
2018-03-20T06:33:16.087Z,3.43
2018-03-20T06:35:46.323Z,2.40
2018-03-20T06:38:16.576Z,3.33
2018-03-20T06:40:46.732Z,2.27
2018-03-20T06:43:18.005Z,2.83
2018-03-20T06:45:48.146Z,2.87
2018-03-20T06:48:18.306Z,2.30
2018-03-20T06:50:48.433Z,3.20
2018-03-20T06:53:18.535Z,3.73
2018-03-20T06:55:48.726Z,3.50
2018-03-20T06:58:19.851Z,3.50
2018-03-20T07:00:50.434Z,4.23
2018-03-20T07:03:20.574Z,3.70
2018-03-20T07:05:51.815Z,3.30
2018-03-20T07:08:23.770Z,3.60
2018-03-20T07:10:55.169Z,3.37
2018-03-20T07:13:25.305Z,3.20
2018-03-20T07:15:55.385Z,3.20
2018-03-20T07:18:26.312Z,2.70
2018-03-20T07:20:56.475Z,3.20
2018-03-20T07:23:26.874Z,3.20
2018-03-20T07:25:58.092Z,3.30
2018-03-20T07:28:28.260Z,3.10
2018-03-20T07:30:58.406Z,3.33
2018-03-20T07:33:28.550Z,3.40
2018-03-20T07:36:00.086Z,3.20
2018-03-20T07:38:30.323Z,3.67
2018-03-20T07:41:00.695Z,3.80
2018-03-20T07:43:30.787Z,3.93
2018-03-20T07:46:00.883Z,3.97
2018-03-20T07:48:31.080Z,3.23
2018-03-20T07:51:02.236Z,3.90
2018-03-20T07:53:32.426Z,4.27
2018-03-20T07:56:02.673Z,3.70
2018-03-20T07:58:33.079Z,4.10
2018-03-20T08:01:03.251Z,3.53
2018-03-20T08:03:33.524Z,3.40
2018-03-20T08:06:03.899Z,3.87
2018-03-20T08:08:34.135Z,3.50
2018-03-20T08:11:05.298Z,3.13
2018-03-20T08:13:36.485Z,3.13
2018-03-20T08:16:06.808Z,2.90
2018-03-20T08:18:36.964Z,3.37
2018-03-20T08:21:07.510Z,3.60
2018-03-20T08:25:08.228Z,2.73
2018-03-20T08:27:38.668Z,3.10
2018-03-20T08:30:08.779Z,3.23
2018-03-20T08:32:38.977Z,3.33
2018-03-20T08:35:10.730Z,2.97
2018-03-20T08:37:40.899Z,2.93
2018-03-20T08:40:12.306Z,2.67
2018-03-20T08:42:42.524Z,2.83
2018-03-20T08:45:13.699Z,2.37
2018-03-20T08:47:44.027Z,2.90
2018-03-20T08:50:14.554Z,2.57
2018-03-20T08:52:44.778Z,2.10
2018-03-20T08:55:14.904Z,2.10
2018-03-20T08:57:45.587Z,2.30
2018-03-20T09:00:15.828Z,2.80
2018-03-20T09:02:45.985Z,2.30
2018-03-20T09:05:16.496Z,2.70
2018-03-20T09:07:46.643Z,2.00
2018-03-20T09:10:16.833Z,2.13
2018-03-20T09:12:47.268Z,2.40
2018-03-20T09:15:17.486Z,1.80
2018-03-20T09:17:47.634Z,1.60
2018-03-20T09:20:18.049Z,1.70
2018-03-20T09:22:48.198Z,1.73
2018-03-20T09:25:19.209Z,1.57
2018-03-20T09:27:49.454Z,1.67
2018-03-20T09:30:19.558Z,1.63
2018-03-20T09:32:49.813Z,1.60
2018-03-20T09:35:20.251Z,1.50
2018-03-20T09:37:50.491Z,1.73
2018-03-20T09:40:21.503Z,1.80
2018-03-20T09:42:51.674Z,1.63
2018-03-20T09:45:21.798Z,1.53
2018-03-20T09:47:52.039Z,1.53
2018-03-20T09:50:22.487Z,1.30
2018-03-20T09:52:54.271Z,1.40
2018-03-20T09:55:24.463Z,1.40
2018-03-20T09:57:54.903Z,1.60
2018-03-20T10:00:25.092Z,1.20
2018-03-20T10:02:55.354Z,1.40
2018-03-20T10:05:26.559Z,1.63
2018-03-20T10:07:56.764Z,1.63
2018-03-20T10:10:26.985Z,1.50
2018-03-20T10:12:57.216Z,1.50
2018-03-20T10:15:27.639Z,1.30
2018-03-20T10:17:57.931Z,1.37
2018-03-20T10:20:28.142Z,1.50
2018-03-20T10:22:58.475Z,1.50
2018-03-20T10:25:28.586Z,1.90
2018-03-20T10:27:58.958Z,1.20
2018-03-20T10:30:29.129Z,1.23
2018-03-20T10:32:59.710Z,1.43
2018-03-20T10:35:29.906Z,1.50
2018-03-20T10:38:00.094Z,1.13
2018-03-20T10:40:30.976Z,1.30
2018-03-20T10:43:01.560Z,1.30
2018-03-20T10:45:32.574Z,1.10
2018-03-20T10:48:02.745Z,1.70
2018-03-20T10:50:32.918Z,1.33
2018-03-20T10:53:04.396Z,1.40
2018-03-20T10:55:34.637Z,1.00
2018-03-20T10:58:04.747Z,1.40
2018-03-20T11:00:39.416Z,1.30
2018-03-20T11:03:09.643Z,1.73
2018-03-20T11:05:40.047Z,1.80
2018-03-20T11:08:10.278Z,1.40
2018-03-20T11:10:40.491Z,1.20
2018-03-20T11:13:10.642Z,1.40
2018-03-20T11:15:41.254Z,1.40
2018-03-20T11:18:11.434Z,1.40
2018-03-20T11:20:41.677Z,1.37
2018-03-20T11:23:12.974Z,1.23
2018-03-20T11:25:43.313Z,1.30
2018-03-20T11:28:13.451Z,1.20
2018-03-20T11:30:43.744Z,1.40
2018-03-20T11:33:13.898Z,1.17
2018-03-20T11:35:44.683Z,1.03
2018-03-20T11:38:14.836Z,1.03
2018-03-20T11:40:45.301Z,0.97
2018-03-20T11:43:15.548Z,1.13
2018-03-20T11:45:45.964Z,1.07
2018-03-20T11:48:16.159Z,1.20
2018-03-20T11:50:47.378Z,1.10
2018-03-20T11:53:17.483Z,1.20
2018-03-20T11:55:47.691Z,1.47
2018-03-20T11:58:17.954Z,1.63
2018-03-20T12:00:48.585Z,1.83
2018-03-20T12:03:18.842Z,1.37
2018-03-20T12:05:49.185Z,1.13
2018-03-20T12:08:28.484Z,1.30
2018-03-20T12:10:58.972Z,1.40
2018-03-20T12:13:29.320Z,1.30
2018-03-20T12:15:59.444Z,1.30
2018-03-20T12:18:29.727Z,1.33
2018-03-20T12:20:59.914Z,1.20
2018-03-20T12:23:30.929Z,1.10
2018-03-20T12:26:01.460Z,1.20
2018-03-20T12:28:31.625Z,1.20
2018-03-20T12:31:01.903Z,1.80
2018-03-20T12:33:32.192Z,1.80
2018-03-20T12:36:02.717Z,1.40
2018-03-20T12:38:32.863Z,1.40
2018-03-20T12:41:03.022Z,1.17
2018-03-20T12:43:33.937Z,1.20
2018-03-20T12:46:04.099Z,1.40
2018-03-20T12:48:34.272Z,1.27
2018-03-20T12:51:04.431Z,1.40
2018-03-20T12:53:35.740Z,1.20
2018-03-20T12:56:05.910Z,1.50
2018-03-20T12:58:36.192Z,1.20
2018-03-20T13:01:07.222Z,1.40
2018-03-20T13:03:37.770Z,1.20
2018-03-20T13:06:08.216Z,1.70
2018-03-20T13:08:38.488Z,2.10
2018-03-20T13:11:08.895Z,1.20
2018-03-20T13:13:39.013Z,1.30
2018-03-20T13:16:09.578Z,1.60
2018-03-20T13:18:39.801Z,1.37
2018-03-20T13:21:09.919Z,1.20
2018-03-20T13:23:40.366Z,1.50
2018-03-20T13:26:10.477Z,1.70
2018-03-20T13:28:40.560Z,1.60
2018-03-20T13:31:10.724Z,1.40
2018-03-20T13:33:40.869Z,1.80
2018-03-20T13:36:12.070Z,1.60
2018-03-20T13:38:42.346Z,1.80
2018-03-20T13:41:13.238Z,1.43
2018-03-20T13:43:43.402Z,1.40
2018-03-20T13:46:13.863Z,1.40
2018-03-20T13:48:44.200Z,1.50
2018-03-20T13:51:14.328Z,1.40
2018-03-20T13:53:44.524Z,1.90
2018-03-20T13:56:14.671Z,1.40
2018-03-20T13:58:44.844Z,1.70
2018-03-20T14:01:15.341Z,2.00
2018-03-20T14:03:45.535Z,1.40
2018-03-20T14:06:15.656Z,1.37
2018-03-20T14:08:45.997Z,2.00
2018-03-20T14:11:16.189Z,1.60
2018-03-20T14:13:47.387Z,2.10
2018-03-20T14:16:18.273Z,1.40
2018-03-20T14:18:48.394Z,1.73
2018-03-20T14:21:18.541Z,2.27
2018-03-20T14:23:48.667Z,1.30
2018-03-20T14:26:18.922Z,1.73
2018-03-20T14:28:50.282Z,1.87
2018-03-20T14:31:21.241Z,1.80
2018-03-20T14:33:51.450Z,1.80
2018-03-20T14:36:22.500Z,1.90
2018-03-20T14:38:52.665Z,1.90
2018-03-20T14:41:22.899Z,1.50
2018-03-20T14:43:53.384Z,1.80
2018-03-20T14:46:23.490Z,2.00
2018-03-20T14:48:53.663Z,1.67
2018-03-20T14:51:24.750Z,1.90
2018-03-20T14:53:56.378Z,2.00
2018-03-20T14:56:26.688Z,1.80
2018-03-20T14:58:56.824Z,2.07
2018-03-20T15:01:26.954Z,2.47
2018-03-20T15:03:57.505Z,1.80
2018-03-20T15:06:28.400Z,1.47
2018-03-20T15:11:36.942Z,1.53
2018-03-20T15:14:07.172Z,1.67
2018-03-20T15:16:38.243Z,1.20
2018-03-20T15:19:08.442Z,1.63
2018-03-20T15:21:39.826Z,1.67
2018-03-20T15:24:10.086Z,1.70
2018-03-20T15:26:40.285Z,1.47
2018-03-20T15:29:10.566Z,2.50
2018-03-20T15:31:41.924Z,1.90
2018-03-20T15:34:12.869Z,1.90
2018-03-20T15:36:43.048Z,1.77
2018-03-20T15:39:13.266Z,1.40
2018-03-20T15:41:43.546Z,1.57
2018-03-20T15:44:14.096Z,1.90
2018-03-20T15:46:44.489Z,1.70
2018-03-20T15:49:15.404Z,2.00
2018-03-20T15:51:45.708Z,1.70
2018-03-20T15:54:15.801Z,1.70
2018-03-20T15:56:46.937Z,1.63
2018-03-20T15:59:17.543Z,1.80
2018-03-20T16:01:47.974Z,2.13
2018-03-20T16:04:18.156Z,1.70
2018-03-20T16:06:48.608Z,2.47
2018-03-20T16:09:19.734Z,1.40
2018-03-20T16:11:49.886Z,1.77
2018-03-20T16:14:20.458Z,1.70
2018-03-20T16:16:50.652Z,1.70
2018-03-20T16:19:20.954Z,2.10
2018-03-20T16:21:52.372Z,1.70
2018-03-20T16:24:23.724Z,1.60
2018-03-20T16:26:53.898Z,1.77
2018-03-20T16:29:24.083Z,1.93
2018-03-20T16:31:54.253Z,1.67
2018-03-20T16:34:24.491Z,1.80
2018-03-20T16:36:54.989Z,1.50
2018-03-20T16:39:26.077Z,1.70
2018-03-20T16:41:56.337Z,1.60
2018-03-20T16:44:27.451Z,1.67
2018-03-20T16:46:57.947Z,1.50
2018-03-20T16:49:28.147Z,1.50
2018-03-20T16:51:58.802Z,1.67
2018-03-20T16:54:29.325Z,1.67
2018-03-20T16:56:59.485Z,1.30
2018-03-20T16:59:29.925Z,1.60
2018-03-20T17:02:00.027Z,1.70
2018-03-20T17:04:30.721Z,1.33
2018-03-20T17:07:01.627Z,1.37
2018-03-20T17:09:31.760Z,2.00
2018-03-20T17:12:02.821Z,2.40
2018-03-20T17:14:33.129Z,1.47
2018-03-20T17:17:04.614Z,1.93
2018-03-20T17:19:34.999Z,1.93
2018-03-20T17:22:05.367Z,1.50
2018-03-20T17:24:35.743Z,1.70
2018-03-20T17:27:05.942Z,1.57
2018-03-20T17:29:36.356Z,1.40
2018-03-20T17:32:06.860Z,1.40
2018-03-20T17:34:36.992Z,1.60
2018-03-20T17:37:07.162Z,1.53
2018-03-20T17:39:37.392Z,1.60
2018-03-20T17:42:07.834Z,1.57
2018-03-20T17:44:38.886Z,1.90
2018-03-20T17:47:09.211Z,1.33
2018-03-20T17:49:40.224Z,2.00
2018-03-20T17:52:10.341Z,1.50
2018-03-20T17:54:40.856Z,1.97
2018-03-20T17:57:11.065Z,1.70
2018-03-20T17:59:41.199Z,1.73
2018-03-20T18:02:11.452Z,1.90
2018-03-20T18:04:41.644Z,2.43
2018-03-20T18:07:11.827Z,2.23
2018-03-20T18:09:42.295Z,2.30
2018-03-20T18:12:12.502Z,1.73
2018-03-20T18:14:42.948Z,1.83
2018-03-20T18:17:13.375Z,1.80
2018-03-20T18:19:43.907Z,1.63
2018-03-20T18:22:14.565Z,1.63
2018-03-20T18:24:50.783Z,1.70
2018-03-20T18:27:21.579Z,1.67
2018-03-20T18:29:52.014Z,1.40
2018-03-20T18:32:23.004Z,2.23
2018-03-20T18:34:53.338Z,1.73
2018-03-20T18:37:23.643Z,1.50
2018-03-20T18:39:53.954Z,1.57
2018-03-20T18:42:24.658Z,1.63
2018-03-20T18:44:55.313Z,2.03
2018-03-20T18:47:26.028Z,1.60
2018-03-20T18:49:56.308Z,1.63
2018-03-20T18:52:27.464Z,1.77
2018-03-20T18:54:58.448Z,1.70
2018-03-20T18:57:29.482Z,1.90
2018-03-20T19:00:00.225Z,1.77
2018-03-20T19:02:31.409Z,1.70
2018-03-20T19:06:31.263Z,1.90
2018-03-20T19:09:02.214Z,3.10
2018-03-20T19:11:34.193Z,2.00
2018-03-20T19:14:04.923Z,1.70
2018-03-20T19:16:35.448Z,1.93
2018-03-20T19:19:05.808Z,2.33
2018-03-20T19:21:36.456Z,2.40
2018-03-20T19:24:07.871Z,2.43
2018-03-20T19:26:39.201Z,2.40
2018-03-20T19:29:09.521Z,1.70
2018-03-20T19:31:40.034Z,2.43
2018-03-20T19:34:10.436Z,1.83
2018-03-20T19:36:41.329Z,12.43
2018-03-20T19:39:11.737Z,14.13
2018-03-20T19:41:43.216Z,11.73
2018-03-20T19:44:13.482Z,9.60
2018-03-20T19:46:43.947Z,8.13
2018-03-20T19:49:14.162Z,4.20
2018-03-20T19:51:45.572Z,3.60
2018-03-20T19:54:15.800Z,2.67
2018-03-20T19:56:46.948Z,2.87
2018-03-20T19:59:18.186Z,2.50
2018-03-20T20:01:49.606Z,1.93
2018-03-20T20:04:20.437Z,1.70
2018-03-20T20:06:50.731Z,2.43
2018-03-20T20:09:21.634Z,1.90
2018-03-20T20:11:52.145Z,1.70
2018-03-20T20:14:23.863Z,1.90
2018-03-20T20:16:55.106Z,1.70
2018-03-20T20:19:26.065Z,2.00
2018-03-20T20:21:56.995Z,2.10
2018-03-20T20:24:27.384Z,1.80
2018-03-20T20:26:58.538Z,1.70
2018-03-20T20:29:29.855Z,2.43
2018-03-20T20:32:00.950Z,2.10
2018-03-20T20:34:32.292Z,2.10
2018-03-20T20:37:03.383Z,2.20
2018-03-20T20:39:35.403Z,2.40
2018-03-20T20:42:05.776Z,2.00
2018-03-20T20:44:36.264Z,2.20
2018-03-20T20:47:06.834Z,1.90
2018-03-20T20:49:37.282Z,2.03
2018-03-20T20:52:07.613Z,1.90
2018-03-20T20:54:38.384Z,1.60
2018-03-20T20:57:09.021Z,2.17
2018-03-20T20:59:39.528Z,2.00
2018-03-20T21:02:10.192Z,2.20
2018-03-20T21:04:40.558Z,2.00
2018-03-20T21:07:12.082Z,1.73
2018-03-20T21:09:43.875Z,1.80
2018-03-20T21:12:16.188Z,1.70
2018-03-20T21:14:47.334Z,1.43
2018-03-20T21:17:17.584Z,1.73
2018-03-20T21:19:48.986Z,1.90
2018-03-20T21:22:19.675Z,1.83
2018-03-20T21:24:50.200Z,2.10
2018-03-20T21:27:20.344Z,2.03
2018-03-20T21:29:52.159Z,2.47
2018-03-20T21:32:22.292Z,1.63
2018-03-20T21:34:52.576Z,1.73
2018-03-20T21:37:23.319Z,1.77
2018-03-20T21:39:53.743Z,2.00
2018-03-20T21:42:24.240Z,2.30
2018-03-20T21:44:54.498Z,2.30
2018-03-20T21:47:24.911Z,1.90
2018-03-20T21:49:55.498Z,1.90
2018-03-20T21:52:26.524Z,2.23
2018-03-20T21:54:57.106Z,2.37
2018-03-20T21:57:27.342Z,2.30
2018-03-20T21:59:57.773Z,2.03
2018-03-20T22:02:28.251Z,2.50
2018-03-20T22:04:58.835Z,2.13
2018-03-20T22:07:29.646Z,2.40
2018-03-20T22:09:59.798Z,1.80
2018-03-20T22:12:30.239Z,2.43
2018-03-20T22:15:00.545Z,2.73
2018-03-20T22:17:31.440Z,2.33
2018-03-20T22:20:01.728Z,1.93
2018-03-20T22:22:31.850Z,2.40
2018-03-20T22:25:02.230Z,3.00
2018-03-20T22:27:32.430Z,2.00
2018-03-20T22:30:02.647Z,2.40
2018-03-20T22:32:33.231Z,2.50
2018-03-20T22:35:04.671Z,2.23
2018-03-20T22:37:35.070Z,2.47
2018-03-20T22:40:05.523Z,1.93
2018-03-20T22:42:35.665Z,1.87
2018-03-20T22:45:05.825Z,1.83
2018-03-20T22:47:36.186Z,2.30
2018-03-20T22:50:06.717Z,2.20
2018-03-20T22:52:36.996Z,2.60
2018-03-20T22:55:08.136Z,2.27
2018-03-20T22:57:38.709Z,2.30
2018-03-20T23:00:08.994Z,1.97
2018-03-20T23:02:39.491Z,2.17
2018-03-20T23:05:09.974Z,2.30
2018-03-20T23:07:40.346Z,2.30
2018-03-20T23:10:11.607Z,2.57
2018-03-20T23:12:41.974Z,2.20
2018-03-20T23:15:14.257Z,2.50
2018-03-20T23:20:47.017Z,2.10
2018-03-20T23:23:17.571Z,2.80
2018-03-20T23:25:47.961Z,2.27
2018-03-20T23:28:18.734Z,2.40
2018-03-20T23:30:49.328Z,2.40
2018-03-20T23:33:19.694Z,1.70
2018-03-20T23:35:50.974Z,1.87
2018-03-20T23:38:21.103Z,1.80
2018-03-20T23:40:52.688Z,1.97
2018-03-20T23:43:23.423Z,1.70
2018-03-20T23:45:53.886Z,1.80
2018-03-20T23:48:24.743Z,2.00
2018-03-20T23:50:55.434Z,1.80
2018-03-20T23:53:26.514Z,2.43
2018-03-20T23:55:56.904Z,1.57
2018-03-20T23:58:28.134Z,2.00
